CFG7DF EDDH-EDDS
Flight info
| Callsign | CFG7DF |
|---|---|
| Flight time | 1h 11m |
| Altitude | 35000 |
| Route | IDEKO7G/33 IDEKO N850 NIE DCT BERXO DCT SILWE DCT OSBIT P605 TOSTU T726 LBU |
| Aircraft | A320/M-SDE3FGHIRWY/LB1 |
Departure
| Time | 2026-04-30 20:58 |
|---|---|
| Airport | Hamburg Helmut Schmidt Airport (EDDH) |
Arrival
| Time | 2026-04-30 22:09 |
|---|---|
| Airport | Stuttgart Airport (EDDS) |
| Time | Latitude | Longitude | Altitude | Speed | Heading |
|---|---|---|---|---|---|
| 2026-04-30 20:13 | 53.63331 | 10.00348 | 49 ft | 0 kts | 86° |
| 2026-04-30 20:41 | 53.63331 | 10.00347 | 48 ft | 1 kts | 86° |
| 2026-04-30 20:41 | 53.63329 | 10.00306 | 46 ft | 4 kts | 85° |
| 2026-04-30 20:41 | 53.63326 | 10.00261 | 44 ft | 4 kts | 85° |
| 2026-04-30 20:42 | 53.63325 | 10.00215 | 44 ft | 4 kts | 96° |
| 2026-04-30 20:42 | 53.63332 | 10.00179 | 43 ft | 3 kts | 163° |
| 2026-04-30 20:42 | 53.63335 | 10.00177 | 43 ft | 0 kts | 176° |
| 2026-04-30 20:45 | 53.63303 | 10.00175 | 46 ft | 8 kts | 182° |
| 2026-04-30 20:45 | 53.63242 | 10.00175 | 48 ft | 9 kts | 175° |
| 2026-04-30 20:45 | 53.63175 | 10.00185 | 46 ft | 10 kts | 175° |
| 2026-04-30 20:46 | 53.62946 | 10.00051 | 48 ft | 12 kts | 216° |
| 2026-04-30 20:46 | 53.62912 | 9.99966 | 48 ft | 6 kts | 243° |
| 2026-04-30 20:47 | 53.62899 | 9.99923 | 48 ft | 2 kts | 243° |
| 2026-04-30 20:47 | 53.62896 | 9.99915 | 48 ft | 1 kts | 243° |
| 2026-04-30 20:48 | 53.62896 | 9.99914 | 48 ft | 0 kts | 243° |
| 2026-04-30 20:54 | 53.62888 | 9.99889 | 45 ft | 5 kts | 243° |
| 2026-04-30 20:54 | 53.62869 | 9.99826 | 45 ft | 8 kts | 244° |
| 2026-04-30 20:55 | 53.62910 | 9.99709 | 45 ft | 0 kts | 332° |
| 2026-04-30 20:57 | 53.62929 | 9.99692 | 45 ft | 15 kts | 332° |
| 2026-04-30 20:58 | 53.64016 | 9.98756 | 52 ft | 151 kts | 333° |
| 2026-04-30 20:58 | 53.65041 | 9.97884 | 421 ft | 172 kts | 334° |
| 2026-04-30 20:58 | 53.66147 | 9.96912 | 976 ft | 189 kts | 333° |
| 2026-04-30 20:58 | 53.67374 | 9.95812 | 1417 ft | 209 kts | 333° |
| 2026-04-30 20:59 | 53.70147 | 9.93301 | 2795 ft | 228 kts | 329° |
| 2026-04-30 20:59 | 53.71231 | 9.91425 | 3843 ft | 228 kts | 294° |
| 2026-04-30 21:00 | 53.71037 | 9.85747 | 4891 ft | 269 kts | 251° |
| 2026-04-30 21:00 | 53.69706 | 9.79627 | 6604 ft | 285 kts | 248° |
| 2026-04-30 21:01 | 53.68306 | 9.73233 | 8357 ft | 295 kts | 249° |
| 2026-04-30 21:01 | 53.67627 | 9.69947 | 9261 ft | 299 kts | 250° |
| 2026-04-30 21:01 | 53.66081 | 9.63343 | 10924 ft | 311 kts | 237° |
| 2026-04-30 21:02 | 53.64680 | 9.60433 | 11230 ft | 332 kts | 220° |
| 2026-04-30 21:02 | 53.62725 | 9.58230 | 11688 ft | 343 kts | 202° |
| 2026-04-30 21:02 | 53.60448 | 9.57041 | 12406 ft | 345 kts | 186° |
| 2026-04-30 21:02 | 53.58054 | 9.56549 | 13199 ft | 348 kts | 183° |
| 2026-04-30 21:03 | 53.55629 | 9.56068 | 13985 ft | 353 kts | 183° |
| 2026-04-30 21:03 | 53.53177 | 9.55578 | 14704 ft | 357 kts | 184° |
| 2026-04-30 21:03 | 53.50693 | 9.55080 | 15378 ft | 362 kts | 184° |
| 2026-04-30 21:03 | 53.48181 | 9.54578 | 16042 ft | 366 kts | 184° |
| 2026-04-30 21:04 | 53.45637 | 9.54070 | 16705 ft | 371 kts | 184° |
| 2026-04-30 21:04 | 53.43058 | 9.53557 | 17364 ft | 375 kts | 184° |
| 2026-04-30 21:04 | 53.37815 | 9.52529 | 18661 ft | 384 kts | 184° |
| 2026-04-30 21:05 | 53.35147 | 9.52009 | 19228 ft | 388 kts | 184° |
| 2026-04-30 21:05 | 53.32452 | 9.51483 | 19797 ft | 392 kts | 184° |
| 2026-04-30 21:05 | 53.29731 | 9.50950 | 20383 ft | 395 kts | 184° |
| 2026-04-30 21:05 | 53.26983 | 9.50409 | 20959 ft | 399 kts | 185° |
| 2026-04-30 21:06 | 53.24221 | 9.49865 | 21532 ft | 403 kts | 185° |
| 2026-04-30 21:06 | 53.21421 | 9.49318 | 22104 ft | 407 kts | 185° |
| 2026-04-30 21:06 | 53.18599 | 9.48766 | 22678 ft | 410 kts | 185° |
| 2026-04-30 21:06 | 53.15751 | 9.48208 | 23249 ft | 414 kts | 185° |
| 2026-04-30 21:07 | 53.12875 | 9.47651 | 23802 ft | 418 kts | 185° |
| 2026-04-30 21:07 | 53.09978 | 9.47097 | 24287 ft | 421 kts | 185° |
| 2026-04-30 21:07 | 53.07050 | 9.46541 | 24740 ft | 424 kts | 185° |
| 2026-04-30 21:07 | 53.04110 | 9.45975 | 25198 ft | 427 kts | 185° |
| 2026-04-30 21:08 | 53.01151 | 9.45399 | 25646 ft | 430 kts | 185° |
| 2026-04-30 21:08 | 52.98177 | 9.44815 | 26081 ft | 432 kts | 186° |
| 2026-04-30 21:08 | 52.95183 | 9.44197 | 26501 ft | 435 kts | 186° |
| 2026-04-30 21:08 | 52.92174 | 9.43549 | 26925 ft | 437 kts | 186° |
| 2026-04-30 21:09 | 52.89146 | 9.42888 | 27334 ft | 440 kts | 186° |
| 2026-04-30 21:09 | 52.86106 | 9.42221 | 27739 ft | 442 kts | 187° |
| 2026-04-30 21:09 | 52.83041 | 9.41551 | 28139 ft | 445 kts | 186° |
| 2026-04-30 21:09 | 52.79969 | 9.40890 | 28393 ft | 447 kts | 186° |
| 2026-04-30 21:10 | 52.73801 | 9.39587 | 28436 ft | 446 kts | 186° |
| 2026-04-30 21:10 | 52.67645 | 9.38294 | 28435 ft | 446 kts | 186° |
| 2026-04-30 21:11 | 52.61470 | 9.37886 | 28435 ft | 444 kts | 172° |
| 2026-04-30 21:11 | 52.55445 | 9.39898 | 28438 ft | 442 kts | 165° |
| 2026-04-30 21:12 | 52.49438 | 9.42149 | 28437 ft | 442 kts | 165° |
| 2026-04-30 21:12 | 52.46438 | 9.43269 | 28544 ft | 445 kts | 165° |
| 2026-04-30 21:12 | 52.43417 | 9.44393 | 28967 ft | 447 kts | 165° |
| 2026-04-30 21:13 | 52.40376 | 9.45525 | 29358 ft | 449 kts | 165° |
| 2026-04-30 21:13 | 52.37326 | 9.46663 | 29730 ft | 451 kts | 166° |
| 2026-04-30 21:13 | 52.34258 | 9.47805 | 30087 ft | 454 kts | 166° |
| 2026-04-30 21:13 | 52.31165 | 9.48950 | 30434 ft | 456 kts | 166° |
| 2026-04-30 21:14 | 52.28059 | 9.50096 | 30728 ft | 458 kts | 166° |
| 2026-04-30 21:14 | 52.24945 | 9.51244 | 31020 ft | 460 kts | 166° |
| 2026-04-30 21:14 | 52.21810 | 9.52400 | 31306 ft | 462 kts | 166° |
| 2026-04-30 21:14 | 52.18672 | 9.53556 | 31576 ft | 464 kts | 166° |
| 2026-04-30 21:15 | 52.15515 | 9.54721 | 31844 ft | 466 kts | 166° |
| 2026-04-30 21:15 | 52.12347 | 9.55890 | 32110 ft | 467 kts | 166° |
| 2026-04-30 21:15 | 52.09181 | 9.57058 | 32371 ft | 466 kts | 166° |
| 2026-04-30 21:15 | 52.06025 | 9.58218 | 32435 ft | 465 kts | 166° |
| 2026-04-30 21:16 | 51.99714 | 9.60523 | 32436 ft | 465 kts | 166° |
| 2026-04-30 21:16 | 51.93303 | 9.61879 | 32435 ft | 466 kts | 175° |
| 2026-04-30 21:17 | 51.86815 | 9.62485 | 32435 ft | 467 kts | 175° |
| 2026-04-30 21:17 | 51.80330 | 9.63073 | 32437 ft | 467 kts | 175° |
| 2026-04-30 21:18 | 51.73806 | 9.63657 | 32432 ft | 467 kts | 175° |
| 2026-04-30 21:18 | 51.67308 | 9.64242 | 32434 ft | 467 kts | 175° |
| 2026-04-30 21:19 | 51.60856 | 9.64822 | 32433 ft | 467 kts | 175° |
| 2026-04-30 21:19 | 51.54369 | 9.65417 | 32433 ft | 467 kts | 175° |
| 2026-04-30 21:20 | 51.47869 | 9.66000 | 32435 ft | 468 kts | 175° |
| 2026-04-30 21:20 | 51.41332 | 9.66593 | 32438 ft | 468 kts | 175° |
| 2026-04-30 21:21 | 51.34878 | 9.67182 | 32437 ft | 468 kts | 175° |
| 2026-04-30 21:22 | 51.25126 | 9.68034 | 32434 ft | 468 kts | 175° |
| 2026-04-30 21:23 | 51.12130 | 9.69194 | 32433 ft | 468 kts | 175° |
| 2026-04-30 21:23 | 51.02382 | 9.70065 | 32430 ft | 468 kts | 175° |
| 2026-04-30 21:24 | 50.95834 | 9.70634 | 32431 ft | 468 kts | 175° |
| 2026-04-30 21:24 | 50.89372 | 9.71200 | 32425 ft | 468 kts | 175° |
| 2026-04-30 21:25 | 50.79605 | 9.72052 | 32425 ft | 469 kts | 174° |
| 2026-04-30 21:26 | 50.69784 | 9.72918 | 32424 ft | 469 kts | 174° |
| 2026-04-30 21:27 | 50.60038 | 9.73760 | 32421 ft | 470 kts | 174° |
| 2026-04-30 21:27 | 50.53504 | 9.74323 | 32416 ft | 470 kts | 174° |
| 2026-04-30 21:28 | 50.43659 | 9.75166 | 32415 ft | 471 kts | 174° |
| 2026-04-30 21:29 | 50.33852 | 9.76007 | 32402 ft | 471 kts | 174° |
| 2026-04-30 21:30 | 50.18608 | 9.77320 | 32403 ft | 471 kts | 174° |
| 2026-04-30 21:31 | 50.02247 | 9.78669 | 32395 ft | 471 kts | 174° |
| 2026-04-30 21:32 | 49.92410 | 9.79253 | 32392 ft | 472 kts | 174° |
| 2026-04-30 21:32 | 49.85857 | 9.79654 | 32383 ft | 472 kts | 174° |
| 2026-04-30 21:33 | 49.76027 | 9.80285 | 32382 ft | 472 kts | 174° |
| 2026-04-30 21:34 | 49.69465 | 9.80703 | 32375 ft | 472 kts | 174° |
| 2026-04-30 21:34 | 49.63069 | 9.81003 | 32118 ft | 438 kts | 175° |
| 2026-04-30 21:34 | 49.60164 | 9.81277 | 31989 ft | 411 kts | 168° |
| 2026-04-30 21:35 | 49.57383 | 9.81993 | 31646 ft | 393 kts | 165° |
| 2026-04-30 21:35 | 49.54727 | 9.82724 | 31121 ft | 384 kts | 165° |
| 2026-04-30 21:35 | 49.52117 | 9.83450 | 30538 ft | 377 kts | 165° |
| 2026-04-30 21:35 | 49.49550 | 9.84168 | 29861 ft | 371 kts | 164° |
| 2026-04-30 21:36 | 49.47066 | 9.84861 | 29158 ft | 366 kts | 164° |
| 2026-04-30 21:36 | 49.44516 | 9.85571 | 28424 ft | 371 kts | 164° |
| 2026-04-30 21:37 | 49.36699 | 9.87754 | 26327 ft | 388 kts | 165° |
| 2026-04-30 21:37 | 49.34026 | 9.88493 | 25657 ft | 392 kts | 165° |
| 2026-04-30 21:37 | 49.31330 | 9.89233 | 25004 ft | 395 kts | 165° |
| 2026-04-30 21:37 | 49.28649 | 9.89963 | 24372 ft | 398 kts | 165° |
| 2026-04-30 21:38 | 49.25879 | 9.90714 | 23699 ft | 400 kts | 165° |
| 2026-04-30 21:38 | 49.23127 | 9.91438 | 22938 ft | 404 kts | 169° |
| 2026-04-30 21:38 | 49.20301 | 9.91317 | 22212 ft | 414 kts | 189° |
| 2026-04-30 21:38 | 49.17608 | 9.89677 | 21506 ft | 421 kts | 211° |
| 2026-04-30 21:39 | 49.15455 | 9.86664 | 20825 ft | 424 kts | 234° |
| 2026-04-30 21:39 | 49.14101 | 9.82691 | 20165 ft | 423 kts | 250° |
| 2026-04-30 21:39 | 49.13075 | 9.78483 | 19503 ft | 423 kts | 251° |
| 2026-04-30 21:39 | 49.12104 | 9.74433 | 18894 ft | 423 kts | 251° |
| 2026-04-30 21:40 | 49.11058 | 9.70048 | 18163 ft | 423 kts | 251° |
| 2026-04-30 21:40 | 49.10052 | 9.65836 | 17466 ft | 423 kts | 251° |
| 2026-04-30 21:40 | 49.09040 | 9.61634 | 16769 ft | 421 kts | 250° |
| 2026-04-30 21:40 | 49.08052 | 9.57574 | 16082 ft | 405 kts | 250° |
| 2026-04-30 21:41 | 49.07085 | 9.53629 | 15430 ft | 390 kts | 250° |
| 2026-04-30 21:41 | 49.06109 | 9.49859 | 14769 ft | 377 kts | 244° |
| 2026-04-30 21:41 | 49.04702 | 9.46514 | 14118 ft | 364 kts | 229° |
| 2026-04-30 21:41 | 49.02904 | 9.43902 | 13520 ft | 349 kts | 214° |
| 2026-04-30 21:42 | 49.00911 | 9.42049 | 13347 ft | 326 kts | 206° |
| 2026-04-30 21:42 | 48.98965 | 9.40422 | 13340 ft | 315 kts | 206° |
| 2026-04-30 21:42 | 48.97076 | 9.38844 | 13343 ft | 313 kts | 206° |
| 2026-04-30 21:42 | 48.95148 | 9.37238 | 13340 ft | 312 kts | 206° |
| 2026-04-30 21:43 | 48.93266 | 9.35673 | 13339 ft | 312 kts | 206° |
| 2026-04-30 21:43 | 48.91366 | 9.34092 | 13331 ft | 312 kts | 206° |
| 2026-04-30 21:43 | 48.89573 | 9.32232 | 13339 ft | 314 kts | 219° |
| 2026-04-30 21:43 | 48.88059 | 9.29780 | 13293 ft | 316 kts | 231° |
| 2026-04-30 21:44 | 48.86739 | 9.27106 | 12886 ft | 317 kts | 232° |
| 2026-04-30 21:44 | 48.85417 | 9.24416 | 12419 ft | 316 kts | 232° |
| 2026-04-30 21:44 | 48.84120 | 9.21776 | 11976 ft | 306 kts | 231° |
| 2026-04-30 21:44 | 48.82868 | 9.19224 | 11523 ft | 298 kts | 231° |
| 2026-04-30 21:45 | 48.81646 | 9.16735 | 11078 ft | 290 kts | 231° |
| 2026-04-30 21:45 | 48.80456 | 9.14318 | 10652 ft | 283 kts | 231° |
| 2026-04-30 21:45 | 48.79304 | 9.11986 | 10231 ft | 277 kts | 231° |
| 2026-04-30 21:45 | 48.78145 | 9.09650 | 9750 ft | 270 kts | 230° |
| 2026-04-30 21:46 | 48.77040 | 9.07427 | 9291 ft | 266 kts | 230° |
| 2026-04-30 21:46 | 48.75918 | 9.05168 | 8819 ft | 264 kts | 230° |
| 2026-04-30 21:46 | 48.74805 | 9.02975 | 8368 ft | 261 kts | 229° |
| 2026-04-30 21:46 | 48.73665 | 9.00843 | 7914 ft | 259 kts | 227° |
| 2026-04-30 21:47 | 48.72523 | 8.98754 | 7473 ft | 257 kts | 227° |
| 2026-04-30 21:47 | 48.71384 | 8.96676 | 7036 ft | 255 kts | 227° |
| 2026-04-30 21:47 | 48.70257 | 8.94618 | 6584 ft | 253 kts | 227° |
| 2026-04-30 21:47 | 48.69151 | 8.92587 | 6343 ft | 245 kts | 227° |
| 2026-04-30 21:48 | 48.68099 | 8.90654 | 6328 ft | 234 kts | 227° |
| 2026-04-30 21:48 | 48.66922 | 8.89041 | 6123 ft | 222 kts | 197° |
| 2026-04-30 21:48 | 48.65507 | 8.88896 | 5851 ft | 196 kts | 154° |
| 2026-04-30 21:48 | 48.64490 | 8.90068 | 5578 ft | 181 kts | 120° |
| 2026-04-30 21:49 | 48.63939 | 8.91762 | 5290 ft | 179 kts | 110° |
| 2026-04-30 21:49 | 48.63743 | 8.93601 | 4876 ft | 181 kts | 88° |
| 2026-04-30 21:49 | 48.63941 | 8.95451 | 4698 ft | 175 kts | 81° |
| 2026-04-30 21:49 | 48.64233 | 8.97207 | 4446 ft | 169 kts | 79° |
| 2026-04-30 21:50 | 48.64538 | 8.98864 | 4225 ft | 157 kts | 79° |
| 2026-04-30 21:50 | 48.64823 | 9.00372 | 4018 ft | 142 kts | 79° |
| 2026-04-30 21:50 | 48.65088 | 9.01760 | 3879 ft | 135 kts | 80° |
| 2026-04-30 21:50 | 48.65345 | 9.03077 | 4142 ft | 132 kts | 79° |
| 2026-04-30 21:51 | 48.65632 | 9.04505 | 4807 ft | 155 kts | 78° |
| 2026-04-30 21:51 | 48.65953 | 9.06171 | 5546 ft | 175 kts | 77° |
| 2026-04-30 21:51 | 48.66304 | 9.08035 | 6139 ft | 191 kts | 76° |
| 2026-04-30 21:51 | 48.66670 | 9.10009 | 6585 ft | 195 kts | 76° |
| 2026-04-30 21:52 | 48.67018 | 9.11852 | 6844 ft | 167 kts | 76° |
| 2026-04-30 21:52 | 48.67342 | 9.13564 | 7084 ft | 179 kts | 76° |
| 2026-04-30 21:52 | 48.67694 | 9.15458 | 7397 ft | 196 kts | 76° |
| 2026-04-30 21:52 | 48.68077 | 9.17505 | 7684 ft | 209 kts | 73° |
| 2026-04-30 21:53 | 48.68930 | 9.19263 | 7677 ft | 215 kts | 34° |
| 2026-04-30 21:53 | 48.70357 | 9.20041 | 7632 ft | 221 kts | 19° |
| 2026-04-30 21:53 | 48.71841 | 9.20643 | 7623 ft | 221 kts | 19° |
| 2026-04-30 21:53 | 48.73324 | 9.21245 | 7627 ft | 221 kts | 19° |
| 2026-04-30 21:54 | 48.74672 | 9.22237 | 7623 ft | 214 kts | 47° |
| 2026-04-30 21:54 | 48.75540 | 9.24029 | 7592 ft | 211 kts | 62° |
| 2026-04-30 21:54 | 48.76253 | 9.25971 | 7624 ft | 211 kts | 66° |
| 2026-04-30 21:54 | 48.76717 | 9.28060 | 7629 ft | 210 kts | 77° |
| 2026-04-30 21:55 | 48.77047 | 9.30211 | 7587 ft | 209 kts | 79° |
| 2026-04-30 21:55 | 48.77358 | 9.32355 | 7296 ft | 208 kts | 78° |
| 2026-04-30 21:55 | 48.77949 | 9.34331 | 6967 ft | 211 kts | 50° |
| 2026-04-30 21:55 | 48.79204 | 9.35489 | 6609 ft | 218 kts | 17° |
| 2026-04-30 21:56 | 48.80730 | 9.35747 | 6240 ft | 223 kts | 6° |
| 2026-04-30 21:56 | 48.82282 | 9.35779 | 5908 ft | 224 kts | 4° |
| 2026-04-30 21:56 | 48.83865 | 9.35773 | 5826 ft | 233 kts | 4° |
| 2026-04-30 21:56 | 48.85475 | 9.35282 | 5825 ft | 243 kts | 335° |
| 2026-04-30 21:57 | 48.86743 | 9.33570 | 5834 ft | 250 kts | 302° |
| 2026-04-30 21:57 | 48.87302 | 9.31094 | 5707 ft | 249 kts | 272° |
| 2026-04-30 21:57 | 48.87014 | 9.28563 | 5352 ft | 243 kts | 242° |
| 2026-04-30 21:57 | 48.86205 | 9.26315 | 4963 ft | 242 kts | 235° |
| 2026-04-30 21:58 | 48.85324 | 9.24132 | 4574 ft | 243 kts | 234° |
| 2026-04-30 21:58 | 48.84450 | 9.21949 | 4368 ft | 240 kts | 234° |
| 2026-04-30 21:58 | 48.83605 | 9.19810 | 4322 ft | 230 kts | 234° |
| 2026-04-30 21:58 | 48.82798 | 9.17730 | 4333 ft | 231 kts | 234° |
| 2026-04-30 21:59 | 48.81989 | 9.15646 | 4329 ft | 228 kts | 233° |
| 2026-04-30 21:59 | 48.81125 | 9.13653 | 4330 ft | 225 kts | 229° |
| 2026-04-30 21:59 | 48.80163 | 9.11799 | 4328 ft | 222 kts | 221° |
| 2026-04-30 22:00 | 48.78069 | 9.08371 | 4336 ft | 221 kts | 220° |
| 2026-04-30 22:00 | 48.75932 | 9.05017 | 4331 ft | 221 kts | 219° |
| 2026-04-30 22:00 | 48.74860 | 9.03342 | 4330 ft | 221 kts | 219° |
| 2026-04-30 22:01 | 48.73792 | 9.01678 | 4322 ft | 220 kts | 219° |
| 2026-04-30 22:01 | 48.72752 | 8.99963 | 4329 ft | 224 kts | 227° |
| 2026-04-30 22:01 | 48.71824 | 8.98075 | 4335 ft | 224 kts | 227° |
| 2026-04-30 22:01 | 48.70889 | 8.96191 | 4333 ft | 224 kts | 227° |
| 2026-04-30 22:02 | 48.69977 | 8.94352 | 4332 ft | 211 kts | 226° |
| 2026-04-30 22:02 | 48.69115 | 8.92616 | 4337 ft | 216 kts | 226° |
| 2026-04-30 22:02 | 48.68171 | 8.90743 | 4376 ft | 222 kts | 226° |
| 2026-04-30 22:02 | 48.67131 | 8.89178 | 4339 ft | 199 kts | 200° |
| 2026-04-30 22:03 | 48.65863 | 8.88822 | 4332 ft | 179 kts | 165° |
| 2026-04-30 22:03 | 48.64790 | 8.89568 | 4331 ft | 168 kts | 134° |
| 2026-04-30 22:03 | 48.64156 | 8.91002 | 4335 ft | 165 kts | 115° |
| 2026-04-30 22:03 | 48.63784 | 8.92641 | 4333 ft | 166 kts | 100° |
| 2026-04-30 22:04 | 48.63813 | 8.94392 | 4334 ft | 169 kts | 84° |
| 2026-04-30 22:04 | 48.64047 | 8.96079 | 4327 ft | 156 kts | 81° |
| 2026-04-30 22:04 | 48.64574 | 8.99043 | 4169 ft | 140 kts | 79° |
| 2026-04-30 22:05 | 48.64839 | 9.00456 | 4007 ft | 138 kts | 80° |
| 2026-04-30 22:05 | 48.65102 | 9.01842 | 3848 ft | 137 kts | 79° |
| 2026-04-30 22:05 | 48.65365 | 9.03217 | 3649 ft | 134 kts | 79° |
| 2026-04-30 22:05 | 48.65617 | 9.04535 | 3489 ft | 132 kts | 79° |
| 2026-04-30 22:06 | 48.65864 | 9.05824 | 3321 ft | 125 kts | 79° |
| 2026-04-30 22:06 | 48.66337 | 9.08297 | 2979 ft | 121 kts | 79° |
| 2026-04-30 22:06 | 48.66572 | 9.09524 | 2836 ft | 122 kts | 79° |
| 2026-04-30 22:07 | 48.66808 | 9.10752 | 2681 ft | 119 kts | 78° |
| 2026-04-30 22:07 | 48.67046 | 9.11919 | 2502 ft | 114 kts | 77° |
| 2026-04-30 22:07 | 48.67273 | 9.13090 | 2428 ft | 118 kts | 79° |
| 2026-04-30 22:07 | 48.67498 | 9.14328 | 2290 ft | 121 kts | 78° |
| 2026-04-30 22:08 | 48.67719 | 9.15592 | 2027 ft | 129 kts | 77° |
| 2026-04-30 22:08 | 48.67972 | 9.16916 | 1818 ft | 130 kts | 73° |
| 2026-04-30 22:08 | 48.68234 | 9.18241 | 1636 ft | 134 kts | 75° |
| 2026-04-30 22:08 | 48.68485 | 9.19591 | 1438 ft | 133 kts | 75° |
| 2026-04-30 22:09 | 48.68743 | 9.20917 | 1276 ft | 125 kts | 76° |
| 2026-04-30 22:09 | 48.68949 | 9.21996 | 1258 ft | 84 kts | 73° |
| 2026-04-30 22:09 | 48.69064 | 9.22601 | 1231 ft | 44 kts | 73° |
| 2026-04-30 22:09 | 48.69115 | 9.22824 | 1226 ft | 21 kts | 63° |
| 2026-04-30 22:10 | 48.69205 | 9.23008 | 1225 ft | 22 kts | 43° |
| 2026-04-30 22:10 | 48.69246 | 9.23066 | 1223 ft | 1 kts | 44° |
| 2026-04-30 22:10 | 48.69259 | 9.23086 | 1222 ft | 4 kts | 44° |
| 2026-04-30 22:10 | 48.69284 | 9.23123 | 1221 ft | 6 kts | 44° |
| 2026-04-30 22:11 | 48.69388 | 9.23127 | 1217 ft | 9 kts | 314° |
| 2026-04-30 22:11 | 48.69409 | 9.23060 | 1218 ft | 6 kts | 281° |
| 2026-04-30 22:11 | 48.69402 | 9.23012 | 1219 ft | 4 kts | 244° |
| 2026-04-30 22:12 | 48.69397 | 9.22989 | 1219 ft | 1 kts | 250° |
| 2026-04-30 22:12 | 48.69380 | 9.22921 | 1220 ft | 17 kts | 250° |
| 2026-04-30 22:12 | 48.69347 | 9.22715 | 1224 ft | 19 kts | 255° |
| 2026-04-30 22:12 | 48.69317 | 9.22555 | 1228 ft | 14 kts | 253° |
| 2026-04-30 22:13 | 48.69293 | 9.22435 | 1231 ft | 10 kts | 253° |
| 2026-04-30 22:13 | 48.69277 | 9.22355 | 1233 ft | 6 kts | 253° |
| 2026-04-30 22:13 | 48.69263 | 9.22280 | 1249 ft | 14 kts | 254° |
| 2026-04-30 22:13 | 48.69237 | 9.22133 | 1241 ft | 13 kts | 255° |
| 2026-04-30 22:14 | 48.69218 | 9.22036 | 1252 ft | 6 kts | 254° |
| 2026-04-30 22:14 | 48.69199 | 9.21936 | 1255 ft | 17 kts | 254° |
| 2026-04-30 22:14 | 48.69158 | 9.21721 | 1260 ft | 22 kts | 255° |
| 2026-04-30 22:14 | 48.69118 | 9.21506 | 1266 ft | 18 kts | 253° |
| 2026-04-30 22:15 | 48.69082 | 9.21318 | 1259 ft | 19 kts | 254° |
| 2026-04-30 22:15 | 48.69044 | 9.21114 | 1264 ft | 20 kts | 254° |
| 2026-04-30 22:15 | 48.69005 | 9.20910 | 1265 ft | 20 kts | 253° |
| 2026-04-30 22:15 | 48.68967 | 9.20711 | 1272 ft | 19 kts | 254° |
| 2026-04-30 22:16 | 48.68931 | 9.20520 | 1276 ft | 19 kts | 254° |
| 2026-04-30 22:16 | 48.68897 | 9.20340 | 1279 ft | 17 kts | 254° |
| 2026-04-30 22:17 | 48.68802 | 9.19955 | 1288 ft | 12 kts | 230° |
| 2026-04-30 22:17 | 48.68751 | 9.19815 | 1286 ft | 18 kts | 254° |
| 2026-04-30 22:17 | 48.68669 | 9.19383 | 1287 ft | 24 kts | 254° |
| 2026-04-30 22:18 | 48.68688 | 9.19221 | 1285 ft | 14 kts | 345° |
| 2026-04-30 22:18 | 48.68808 | 9.19385 | 1288 ft | 9 kts | 74° |
| 2026-04-30 22:19 | 48.68770 | 9.19453 | 1287 ft | 3 kts | 163° |
| 2026-04-30 22:19 | 48.68755 | 9.19459 | 1285 ft | 2 kts | 164° |